Time;durP1;ratioP1;P1;durP2;ratioP2;P2;SDS_P1;SDS_P2;PMS_P1;PMS_P2;Temp;Humidity;BMP_temperature;BMP_pressure;BME280_temperature;BME280_humidity;BME280_pressure;Samples;Min_cycle;Max_cycle;Signal;HPM_P1;HPM_P2
2021/06/07 00:02:03;;;;;;;9.93;6.28;;;;;;;16.74;57.23;100724.59;1672254;83;25578;-70
2021/06/07 00:04:30;;;;;;;10.88;6.65;;;;;;;16.65;57.50;100723.95;1670672;83;25596;-70
2021/06/07 00:06:59;;;;;;;11.33;5.78;;;;;;;16.59;57.75;100728.19;1670695;83;25596;-70
2021/06/07 00:09:26;;;;;;;10.72;6.92;;;;;;;16.57;58.00;100733.35;1670927;83;25681;-69
2021/06/07 00:11:57;;;;;;;12.75;7.35;;;;;;;16.54;58.20;100726.64;1673787;83;25689;-74
2021/06/07 00:14:30;;;;;;;10.32;6.05;;;;;;;16.51;58.30;100726.22;1672056;83;25220;-74
2021/06/07 00:16:57;;;;;;;13.55;6.37;;;;;;;16.47;58.46;100721.82;1671116;83;25206;-74
2021/06/07 00:19:24;;;;;;;10.05;5.78;;;;;;;16.47;58.59;100721.82;1670152;83;25180;-74
2021/06/07 00:21:50;;;;;;;10.40;5.83;;;;;;;16.45;58.80;100715.95;1669871;83;25698;-74
2021/06/07 00:24:18;;;;;;;11.68;6.87;;;;;;;16.46;58.98;100715.44;1672115;83;32836;-70
2021/06/07 00:26:46;;;;;;;8.65;6.67;;;;;;;16.46;59.01;100720.20;1670581;83;25646;-70
2021/06/07 00:29:12;;;;;;;15.50;6.65;;;;;;;16.49;59.29;100718.48;1672295;83;25698;-70
2021/06/07 00:31:39;;;;;;;10.68;7.10;;;;;;;16.52;59.54;100716.77;1668726;83;32410;-69
2021/06/07 00:34:06;;;;;;;12.00;7.22;;;;;;;16.52;59.56;100715.45;1669385;83;25546;-69
2021/06/07 00:36:37;;;;;;;9.55;5.95;;;;;;;16.54;59.73;100716.08;1672826;83;25200;-70
2021/06/07 00:39:08;;;;;;;15.18;6.33;;;;;;;16.57;59.86;100709.59;1673402;83;25133;-74
2021/06/07 00:41:34;;;;;;;11.28;7.20;;;;;;;16.60;59.93;100715.30;1671491;83;25704;-74
2021/06/07 00:44:06;;;;;;;11.10;6.47;;;;;;;16.60;59.85;100720.57;1669588;83;25164;-74
2021/06/07 00:46:32;;;;;;;10.63;6.28;;;;;;;16.59;59.94;100720.27;1672136;83;25766;-74
2021/06/07 00:48:58;;;;;;;11.43;7.08;;;;;;;16.53;59.96;100722.86;1667547;83;34294;-74
2021/06/07 00:51:23;;;;;;;10.32;6.62;;;;;;;16.46;60.06;100722.84;1669527;83;31155;-74
2021/06/07 00:53:50;;;;;;;9.60;6.37;;;;;;;16.39;60.21;100719.34;1670662;83;34776;-74
2021/06/07 00:56:16;;;;;;;9.80;6.00;;;;;;;16.33;60.35;100724.89;1671313;83;25645;-70
2021/06/07 00:58:46;;;;;;;10.80;6.62;;;;;;;16.21;60.41;100727.77;1668993;83;25489;-71
2021/06/07 01:01:20;;;;;;;9.93;6.70;;;;;;;16.09;60.65;100723.50;1668615;83;25681;-70
2021/06/07 01:03:48;;;;;;;10.53;6.35;;;;;;;16.03;60.90;100726.92;1668304;83;25654;-70
2021/06/07 01:06:15;;;;;;;9.95;6.75;;;;;;;15.98;61.00;100729.31;1671933;83;25561;-74
2021/06/07 01:08:41;;;;;;;8.88;6.53;;;;;;;15.95;61.16;100729.70;1671961;83;25419;-74
2021/06/07 01:11:08;;;;;;;10.32;7.12;;;;;;;15.84;61.25;100729.70;1668965;83;25718;-74
2021/06/07 01:13:35;;;;;;;14.80;6.92;;;;;;;15.69;61.42;100724.53;1669525;83;25643;-70
2021/06/07 01:16:02;;;;;;;10.40;6.87;;;;;;;15.59;61.70;100728.45;1669393;83;25660;-70
2021/06/07 01:18:30;;;;;;;9.60;6.60;;;;;;;15.49;61.93;100736.16;1670204;83;25191;-70
2021/06/07 01:21:15;;;;;;;9.43;6.30;;;;;;;15.41;62.26;100731.52;1671950;83;25239;-70
2021/06/07 01:23:44;;;;;;;10.23;7.00;;;;;;;15.40;62.48;100723.30;1669333;83;25736;-70
2021/06/07 01:26:14;;;;;;;9.50;6.87;;;;;;;15.44;62.76;100722.75;1670276;83;25688;-74
2021/06/07 01:28:41;;;;;;;9.88;6.55;;;;;;;15.46;62.93;100723.87;1671532;83;25665;-75
2021/06/07 01:31:11;;;;;;;10.53;6.62;;;;;;;15.43;62.97;100721.10;1675370;83;25717;-74
2021/06/07 01:33:39;;;;;;;13.30;6.63;;;;;;;15.44;63.13;100721.91;1674952;83;25224;-74
2021/06/07 01:36:06;;;;;;;10.80;6.55;;;;;;;15.40;63.17;100720.16;1669608;83;25588;-75
2021/06/07 01:38:33;;;;;;;14.30;6.72;;;;;;;15.37;63.31;100713.95;1672364;83;25700;-74
2021/06/07 01:41:03;;;;;;;10.85;6.90;;;;;;;15.39;63.62;100716.42;1675045;83;25435;-75
2021/06/07 01:43:31;;;;;;;10.43;7.05;;;;;;;15.45;63.72;100715.66;1672556;83;26556;-74
2021/06/07 01:45:57;;;;;;;14.50;7.72;;;;;;;15.50;63.69;100717.23;1673045;83;25272;-74
2021/06/07 01:48:25;;;;;;;12.55;7.65;;;;;;;15.43;63.50;100719.78;1671032;83;26427;-74
2021/06/07 01:50:55;;;;;;;11.83;7.53;;;;;;;15.41;63.51;100717.83;1673287;83;25720;-74
2021/06/07 01:53:24;;;;;;;15.45;8.03;;;;;;;15.44;63.73;100725.39;1671768;83;25689;-74
2021/06/07 01:55:54;;;;;;;8.60;7.20;;;;;;;15.43;63.71;100716.34;1671849;83;25176;-74
2021/06/07 01:58:21;;;;;;;11.38;6.80;;;;;;;15.37;63.76;100722.37;1670729;83;25208;-73
2021/06/07 02:00:59;;;;;;;14.25;7.40;;;;;;;15.37;63.86;100726.31;1670134;83;25557;-74
2021/06/07 02:03:26;;;;;;;8.95;6.97;;;;;;;15.32;63.95;100722.92;1671866;83;25724;-74
2021/06/07 02:05:59;;;;;;;10.15;7.20;;;;;;;15.28;64.02;100724.31;1671225;83;25219;-70
2021/06/07 02:08:31;;;;;;;9.85;6.87;;;;;;;15.23;64.23;100730.12;1670866;83;25335;-70
2021/06/07 02:11:02;;;;;;;9.45;7.00;;;;;;;15.19;64.40;100728.85;1670710;83;25668;-70
2021/06/07 02:13:28;;;;;;;12.23;6.65;;;;;;;15.18;64.60;100731.69;1671016;83;25587;-70
2021/06/07 02:15:58;;;;;;;12.98;7.05;;;;;;;15.15;64.66;100730.75;1670985;83;25680;-70
2021/06/07 02:18:24;;;;;;;11.90;7.12;;;;;;;15.12;64.92;100733.25;1670551;83;31043;-70
2021/06/07 02:20:50;;;;;;;13.85;7.90;;;;;;;15.12;65.08;100735.08;1669452;83;25173;-70
2021/06/07 02:23:16;;;;;;;12.07;7.65;;;;;;;15.11;65.16;100731.59;1672611;83;25699;-70
2021/06/07 02:25:42;;;;;;;13.22;8.00;;;;;;;15.14;65.25;100737.00;1673374;83;25456;-72
2021/06/07 02:28:14;;;;;;;11.05;7.05;;;;;;;15.09;65.18;100733.12;1669666;83;32889;-74
2021/06/07 02:30:41;;;;;;;11.08;7.53;;;;;;;15.06;65.32;100737.95;1668837;83;25908;-74
2021/06/07 02:33:07;;;;;;;12.45;7.83;;;;;;;15.00;65.38;100730.27;1670059;83;25772;-70
2021/06/07 02:35:34;;;;;;;11.03;7.50;;;;;;;14.91;65.53;100727.43;1672459;83;25775;-70
2021/06/07 02:38:00;;;;;;;9.35;6.45;;;;;;;14.86;65.75;100731.11;1670121;83;25875;-70
2021/06/07 02:40:29;;;;;;;13.50;6.90;;;;;;;14.83;65.86;100736.23;1648926;85;25712;-70
2021/06/07 02:42:56;;;;;;;9.40;6.95;;;;;;;14.81;65.97;100736.95;1678645;83;25978;-70
2021/06/07 02:45:25;;;;;;;10.90;7.95;;;;;;;14.80;66.17;100731.84;1679456;83;25180;-74
2021/06/07 02:47:55;;;;;;;9.63;7.33;;;;;;;14.80;66.42;100741.06;1680074;83;25171;-74
2021/06/07 02:50:26;;;;;;;11.05;5.95;;;;;;;14.80;66.55;100736.61;1678133;83;25586;-74
2021/06/07 02:52:54;;;;;;;11.43;6.30;;;;;;;14.83;66.69;100738.06;1679727;83;25670;-74
2021/06/07 02:55:31;;;;;;;13.78;7.08;;;;;;;14.79;66.63;100732.36;1678161;83;25182;-74
2021/06/07 02:57:58;;;;;;;9.90;7.45;;;;;;;14.78;66.85;100734.66;1679844;83;25443;-74
2021/06/07 03:00:32;;;;;;;10.43;6.83;;;;;;;14.77;66.96;100734.85;1680174;83;25225;-74
2021/06/07 03:03:00;;;;;;;11.88;7.60;;;;;;;14.78;67.10;100733.34;1679208;83;25778;-74
2021/06/07 03:05:27;;;;;;;10.70;7.45;;;;;;;14.82;67.15;100733.81;1677945;83;25719;-74
2021/06/07 03:07:53;;;;;;;9.35;7.08;;;;;;;14.78;67.13;100738.59;1678679;83;25262;-74
2021/06/07 03:10:20;;;;;;;10.58;7.30;;;;;;;14.76;67.24;100747.20;1679484;83;25251;-74
2021/06/07 03:12:46;;;;;;;13.40;7.92;;;;;;;14.77;67.37;100743.55;1677057;83;25656;-74
2021/06/07 03:15:14;;;;;;;11.83;7.80;;;;;;;14.80;67.43;100743.70;1677647;83;25655;-75
2021/06/07 03:17:41;;;;;;;14.05;8.18;;;;;;;14.84;67.54;100746.26;1679159;83;25211;-74
2021/06/07 03:20:11;;;;;;;11.50;7.45;;;;;;;14.86;67.63;100747.70;1680625;83;25676;-74
2021/06/07 03:22:37;;;;;;;10.65;7.25;;;;;;;14.89;67.64;100742.58;1679352;83;25712;-74
2021/06/07 03:25:06;;;;;;;14.18;7.60;;;;;;;14.94;67.81;100740.22;1677451;83;25660;-74
2021/06/07 03:27:32;;;;;;;9.68;7.10;;;;;;;14.97;67.85;100741.66;1678168;83;25750;-74
2021/06/07 03:29:58;;;;;;;11.88;7.60;;;;;;;14.99;67.91;100739.67;1677952;83;32771;-74
2021/06/07 03:32:24;;;;;;;13.20;7.03;;;;;;;15.00;67.96;100747.88;1678930;83;25172;-74
2021/06/07 03:34:50;;;;;;;11.97;7.30;;;;;;;15.03;68.00;100751.45;1676226;83;25673;-74
2021/06/07 03:37:17;;;;;;;12.25;7.50;;;;;;;15.08;68.17;100749.09;1679789;83;25477;-74
2021/06/07 03:39:43;;;;;;;12.85;7.70;;;;;;;15.14;68.03;100751.00;1676113;83;25625;-74
2021/06/07 03:42:09;;;;;;;9.13;6.72;;;;;;;15.20;68.07;100753.39;1677883;83;33272;-74
2021/06/07 03:44:35;;;;;;;10.43;7.50;;;;;;;15.22;67.92;100752.69;1675171;83;25850;-74
2021/06/07 03:47:01;;;;;;;13.00;7.45;;;;;;;15.26;68.02;100751.33;1677695;83;25208;-74
2021/06/07 03:49:27;;;;;;;13.40;8.63;;;;;;;15.31;67.80;100743.18;1679709;83;32348;-74
2021/06/07 03:51:53;;;;;;;14.78;9.35;;;;;;;15.31;67.80;100743.18;1680547;83;25713;-74
2021/06/07 03:54:19;;;;;;;9.63;7.05;;;;;;;15.40;67.93;100747.02;1678823;83;25640;-74
2021/06/07 03:56:45;;;;;;;10.50;7.00;;;;;;;15.45;67.94;100753.86;1673528;83;31226;-74
2021/06/07 03:59:12;;;;;;;11.33;6.72;;;;;;;15.48;67.86;100746.39;1679571;83;35335;-74
2021/06/07 04:01:39;;;;;;;15.65;7.50;;;;;;;15.49;67.78;100726.13;1677442;83;25652;-74
2021/06/07 04:04:05;;;;;;;14.47;7.80;;;;;;;15.66;67.70;100745.97;1677742;83;25464;-74
2021/06/07 04:06:31;;;;;;;12.50;7.40;;;;;;;15.74;67.66;100745.86;1678739;83;25562;-74
2021/06/07 04:08:59;;;;;;;11.30;7.78;;;;;;;15.84;67.46;100748.67;1677838;83;25653;-74
2021/06/07 04:11:25;;;;;;;15.50;7.90;;;;;;;15.93;67.44;100752.31;1678916;83;25204;-74
2021/06/07 04:13:52;;;;;;;9.58;7.00;;;;;;;16.03;67.18;100753.80;1676988;83;25700;-74
2021/06/07 04:16:18;;;;;;;12.00;7.67;;;;;;;16.10;66.91;100762.08;1678998;83;25674;-74
2021/06/07 04:18:44;;;;;;;14.25;8.30;;;;;;;16.15;66.87;100756.20;1677061;83;25250;-74
2021/06/07 04:21:11;;;;;;;11.90;6.62;;;;;;;16.22;66.90;100758.91;1678796;83;25692;-74
2021/06/07 04:23:37;;;;;;;11.55;6.47;;;;;;;16.25;66.60;100763.80;1680025;83;25190;-74
2021/06/07 04:26:03;;;;;;;14.85;8.05;;;;;;;16.24;66.57;100760.34;1679102;83;32787;-74
2021/06/07 04:28:29;;;;;;;13.32;7.92;;;;;;;16.18;66.67;100746.11;1676729;83;25699;-74
2021/06/07 04:30:55;;;;;;;11.35;7.10;;;;;;;16.37;66.54;100764.40;1678559;83;33346;-74
2021/06/07 04:33:21;;;;;;;11.43;7.17;;;;;;;16.43;66.46;100763.62;1678866;83;25679;-70
2021/06/07 04:35:48;;;;;;;11.70;6.65;;;;;;;16.48;66.37;100755.61;1679659;83;25175;-70
2021/06/07 04:38:13;;;;;;;9.03;6.47;;;;;;;16.56;66.37;100757.61;1678900;83;25187;-70
2021/06/07 04:40:40;;;;;;;10.32;6.50;;;;;;;16.67;65.98;100758.05;1678339;83;26102;-70
2021/06/07 04:43:12;;;;;;;8.48;5.78;;;;;;;16.75;65.75;100768.45;1676044;83;25713;-70
2021/06/07 04:45:42;;;;;;;10.90;6.05;;;;;;;16.83;65.56;100764.36;1680693;83;25157;-74
2021/06/07 04:48:09;;;;;;;12.23;6.58;;;;;;;16.95;65.40;100760.67;1678791;83;25724;-74
2021/06/07 04:50:36;;;;;;;9.83;6.58;;;;;;;17.04;65.17;100763.44;1678672;83;25239;-74
2021/06/07 04:53:04;;;;;;;9.10;6.53;;;;;;;17.14;64.89;100773.65;1677543;83;26369;-70
2021/06/07 04:55:35;;;;;;;9.60;6.20;;;;;;;17.17;64.39;100767.45;1678380;83;25687;-74
2021/06/07 04:58:09;;;;;;;8.58;5.85;;;;;;;17.22;64.59;100775.60;1677575;83;25171;-74
2021/06/07 05:00:36;;;;;;;11.35;6.15;;;;;;;17.29;64.55;100773.78;1677701;83;25696;-74
2021/06/07 05:03:03;;;;;;;11.83;6.70;;;;;;;17.37;64.55;100780.72;1678463;83;25565;-70
2021/06/07 05:05:29;;;;;;;12.68;6.80;;;;;;;17.48;64.37;100781.96;1678490;83;25568;-70
2021/06/07 05:07:55;;;;;;;10.00;6.30;;;;;;;17.52;64.23;100777.92;1678131;83;25215;-71
2021/06/07 05:10:21;;;;;;;15.00;6.75;;;;;;;17.60;64.27;100775.09;1674148;83;31221;-71
2021/06/07 05:12:47;;;;;;;10.68;6.35;;;;;;;17.71;63.92;100780.30;1676159;83;34715;-70
2021/06/07 05:15:15;;;;;;;11.57;6.20;;;;;;;17.81;63.87;100779.91;1676983;83;25373;-74
2021/06/07 05:17:42;;;;;;;10.50;6.58;;;;;;;17.89;63.60;100775.23;1677625;83;25558;-74
2021/06/07 05:20:13;;;;;;;12.20;5.95;;;;;;;17.89;62.80;100775.75;1676030;83;25242;-74
2021/06/07 05:22:39;;;;;;;12.15;5.65;;;;;;;17.85;62.76;100775.34;1679146;83;25172;-74
2021/06/07 05:25:07;;;;;;;14.87;5.95;;;;;;;17.88;62.78;100774.94;1677652;83;25208;-74
2021/06/07 05:27:33;;;;;;;9.48;5.40;;;;;;;17.93;62.60;100774.34;1681291;83;25817;-74
2021/06/07 05:30:00;;;;;;;9.40;5.08;;;;;;;18.02;62.35;100778.91;1679057;83;25724;-72
2021/06/07 05:32:27;;;;;;;8.35;5.03;;;;;;;18.10;62.13;100777.39;1678098;83;25371;-69
2021/06/07 05:34:53;;;;;;;8.35;5.33;;;;;;;18.23;62.35;100772.09;1679986;83;25338;-68
2021/06/07 05:37:19;;;;;;;12.65;5.60;;;;;;;18.34;61.77;100768.81;1680902;83;34782;-68
2021/06/07 05:39:45;;;;;;;7.97;5.08;;;;;;;18.48;61.53;100778.86;1681670;83;25694;-68
2021/06/07 05:42:11;;;;;;;6.33;3.83;;;;;;;18.60;61.18;100775.06;1682110;83;25632;-68
2021/06/07 05:44:37;;;;;;;6.65;4.08;;;;;;;18.69;60.75;100780.94;1676403;83;32846;-68
2021/06/07 05:47:03;;;;;;;10.53;4.15;;;;;;;18.78;60.01;100775.77;1680310;83;31236;-69
2021/06/07 05:49:29;;;;;;;11.18;4.40;;;;;;;18.85;59.50;100777.86;1657842;83;25244;-68
2021/06/07 05:51:55;;;;;;;9.50;4.25;;;;;;;18.96;59.67;100777.23;1677794;83;25240;-68
2021/06/07 05:54:21;;;;;;;10.60;3.85;;;;;;;19.07;59.11;100777.09;1680147;83;25704;-72
2021/06/07 05:56:53;;;;;;;10.60;3.20;;;;;;;19.12;57.23;100779.90;1680843;83;25255;-72
2021/06/07 05:59:14;;;;;;;4.80;2.87;;;;;;;19.20;56.74;100782.83;1678512;83;25167;-74
2021/06/07 06:01:40;;;;;;;7.05;3.33;;;;;;;19.28;55.85;100775.44;1680742;83;25721;-74
2021/06/07 06:04:06;;;;;;;8.10;3.27;;;;;;;19.38;55.70;100784.27;1680091;83;25636;-74
2021/06/07 06:06:32;;;;;;;7.00;2.70;;;;;;;19.48;55.41;100780.64;1682651;83;25327;-71
2021/06/07 06:08:58;;;;;;;11.22;3.50;;;;;;;19.54;54.83;100778.17;1679312;83;25477;-71
2021/06/07 06:11:24;;;;;;;7.65;3.95;;;;;;;19.60;54.89;100783.94;1679362;83;31297;-69
2021/06/07 06:13:50;;;;;;;14.03;3.17;;;;;;;19.70;54.18;100779.01;1678179;83;25325;-68
2021/06/07 06:16:19;;;;;;;5.72;2.90;;;;;;;19.73;53.41;100783.36;1678399;83;25473;-69
2021/06/07 06:18:48;;;;;;;11.38;3.45;;;;;;;19.76;53.42;100788.75;1676211;83;25679;-68
2021/06/07 06:21:15;;;;;;;9.45;3.83;;;;;;;19.84;53.79;100789.01;1677885;83;25227;-70
2021/06/07 06:23:42;;;;;;;6.12;2.90;;;;;;;19.90;53.32;100790.27;1680479;83;25321;-70
2021/06/07 06:26:09;;;;;;;11.93;2.90;;;;;;;19.97;52.93;100788.91;1677935;83;25732;-69
2021/06/07 06:28:37;;;;;;;6.78;2.92;;;;;;;20.06;52.00;100790.77;1678195;83;25525;-70
2021/06/07 06:31:05;;;;;;;6.78;2.98;;;;;;;20.12;51.53;100793.88;1676696;83;25564;-69
2021/06/07 06:33:32;;;;;;;7.65;2.92;;;;;;;20.22;51.78;100796.86;1677193;83;25716;-70
2021/06/07 06:35:58;;;;;;;6.22;3.02;;;;;;;20.26;50.93;100792.73;1679468;83;25768;-70
2021/06/07 06:38:25;;;;;;;8.00;3.30;;;;;;;20.29;50.32;100796.27;1676962;83;25592;-70
2021/06/07 06:40:56;;;;;;;5.92;3.22;;;;;;;20.32;50.55;100792.37;1680069;83;26438;-70
2021/06/07 06:43:21;;;;;;;13.15;3.55;;;;;;;20.47;51.62;100792.84;1676763;83;25652;-70
2021/06/07 06:45:47;;;;;;;7.72;2.90;;;;;;;20.62;52.34;100795.16;1677077;83;25223;-70
2021/06/07 06:48:13;;;;;;;6.30;3.22;;;;;;;20.76;50.37;100797.98;1675569;83;25777;-69
2021/06/07 06:50:40;;;;;;;10.63;3.95;;;;;;;20.91;51.15;100798.12;1679474;83;25852;-69
2021/06/07 06:53:17;;;;;;;8.25;2.83;;;;;;;20.99;51.99;100797.83;1679949;83;25775;-70
2021/06/07 06:55:46;;;;;;;5.05;3.27;;;;;;;21.20;50.55;100801.87;1670842;83;26385;-73
2021/06/07 06:58:12;;;;;;;7.87;2.98;;;;;;;21.23;49.56;100801.41;1646684;83;26256;-73
2021/06/07 07:00:40;;;;;;;6.30;2.98;;;;;;;21.24;48.98;100801.17;1680282;83;25609;-73
2021/06/07 07:03:19;;;;;;;4.83;2.60;;;;;;;21.23;48.46;100803.55;1680661;83;25200;-73
2021/06/07 07:05:47;;;;;;;10.88;2.40;;;;;;;21.21;48.63;100803.48;1678003;83;25606;-71
2021/06/07 07:08:14;;;;;;;6.00;3.02;;;;;;;21.22;48.00;100803.76;1680398;83;25519;-71
2021/06/07 07:10:43;;;;;;;10.15;2.80;;;;;;;21.21;47.84;100804.28;1680317;83;25610;-71
2021/06/07 07:13:10;;;;;;;6.70;2.83;;;;;;;21.22;46.56;100799.77;1681241;83;25806;-71
2021/06/07 07:15:36;;;;;;;8.25;3.50;;;;;;;21.22;46.67;100805.09;1677996;83;25763;-70
2021/06/07 07:18:05;;;;;;;5.95;3.20;;;;;;;21.24;46.59;100805.16;1677771;83;25784;-70
2021/06/07 07:20:32;;;;;;;7.80;2.62;;;;;;;21.28;47.59;100801.55;1680836;83;25594;-73
2021/06/07 07:22:59;;;;;;;4.90;2.52;;;;;;;21.39;46.80;100806.63;1677973;83;26050;-73
2021/06/07 07:25:24;;;;;;;5.08;3.02;;;;;;;21.40;46.26;100807.75;1681277;83;25994;-71
2021/06/07 07:27:51;;;;;;;6.97;2.77;;;;;;;21.45;46.45;100807.89;1677803;83;25732;-73
2021/06/07 07:30:20;;;;;;;4.72;3.12;;;;;;;21.52;46.28;100809.11;1679052;83;25195;-72
2021/06/07 07:32:49;;;;;;;11.10;4.17;;;;;;;21.53;46.47;100812.08;1677186;83;25613;-72
2021/06/07 07:35:16;;;;;;;8.50;3.83;;;;;;;21.58;47.28;100804.73;1682317;83;25720;-73
2021/06/07 07:37:43;;;;;;;10.38;3.47;;;;;;;21.68;48.00;100808.98;1685560;83;25226;-74
2021/06/07 07:40:13;;;;;;;7.62;3.37;;;;;;;21.77;46.67;100812.97;1680276;83;25178;-73
2021/06/07 07:42:40;;;;;;;7.65;3.90;;;;;;;21.81;46.19;100811.45;1684393;83;25204;-74
2021/06/07 07:45:09;;;;;;;8.28;4.37;;;;;;;21.87;45.54;100811.86;1684135;83;25581;-73
2021/06/07 07:47:35;;;;;;;8.85;3.22;;;;;;;21.93;46.47;100809.64;1679495;83;25290;-73
2021/06/07 07:50:05;;;;;;;4.35;2.65;;;;;;;22.03;46.30;100816.24;1677184;83;25276;-73
2021/06/07 07:52:31;;;;;;;7.25;3.77;;;;;;;22.03;44.04;100812.25;1683980;83;25215;-73
2021/06/07 07:54:57;;;;;;;8.65;3.08;;;;;;;21.95;44.93;100806.20;1679179;83;25185;-73
2021/06/07 07:57:23;;;;;;;9.68;3.40;;;;;;;22.02;45.24;100808.78;1677560;83;25490;-70
2021/06/07 07:59:49;;;;;;;5.55;2.95;;;;;;;22.16;45.72;100805.38;1680853;83;32747;-73
2021/06/07 08:02:15;;;;;;;4.20;3.15;;;;;;;22.33;45.17;100810.84;1680096;83;25199;-73
2021/06/07 08:04:42;;;;;;;6.08;3.52;;;;;;;22.36;45.04;100813.05;1677268;83;26175;-71
2021/06/07 08:07:09;;;;;;;6.05;3.37;;;;;;;22.35;44.60;100822.89;1674576;83;26313;-71
2021/06/07 08:09:36;;;;;;;5.75;3.10;;;;;;;22.32;45.03;100816.70;1678603;83;25531;-71
2021/06/07 08:12:04;;;;;;;5.85;3.30;;;;;;;22.39;45.15;100816.05;1678536;83;25816;-71
2021/06/07 08:14:31;;;;;;;7.37;3.15;;;;;;;22.40;44.90;100814.22;1677719;83;25721;-71
2021/06/07 08:16:57;;;;;;;5.05;2.90;;;;;;;22.43;45.19;100817.75;1677329;83;25914;-71
2021/06/07 08:19:24;;;;;;;5.30;3.00;;;;;;;22.47;44.46;100818.89;1677044;83;25728;-71
2021/06/07 08:21:50;;;;;;;6.60;3.00;;;;;;;22.46;44.28;100812.48;1676699;83;25533;-71
2021/06/07 08:24:17;;;;;;;7.97;2.80;;;;;;;22.45;44.08;100806.84;1675227;83;25222;-71
2021/06/07 08:26:43;;;;;;;7.45;2.90;;;;;;;22.51;43.89;100812.06;1676523;83;25703;-71
2021/06/07 08:29:09;;;;;;;4.37;3.02;;;;;;;22.57;43.90;100807.66;1678086;83;25209;-71
2021/06/07 08:31:37;;;;;;;5.40;3.00;;;;;;;22.65;43.33;100805.16;1678618;83;25130;-71
2021/06/07 08:34:04;;;;;;;4.40;2.92;;;;;;;22.68;43.01;100803.36;1678695;83;25521;-73
2021/06/07 08:36:30;;;;;;;4.83;2.80;;;;;;;22.70;42.63;100802.58;1682718;83;25205;-73
2021/06/07 08:38:57;;;;;;;8.83;3.30;;;;;;;22.74;42.72;100803.22;1683259;83;25739;-73
2021/06/07 08:41:23;;;;;;;6.95;2.83;;;;;;;22.71;42.46;100795.69;1665043;83;25547;-73
2021/06/07 08:43:51;;;;;;;9.20;3.60;;;;;;;22.76;43.47;100795.80;1679657;83;42045;-73
2021/06/07 08:46:17;;;;;;;7.70;2.80;;;;;;;22.88;42.92;100801.09;1685117;83;25658;-73
2021/06/07 08:48:43;;;;;;;7.92;3.27;;;;;;;22.90;42.67;100796.87;1680959;83;25593;-70
2021/06/07 08:51:10;;;;;;;3.80;2.70;;;;;;;22.92;42.80;100790.27;1677172;83;25861;-74
2021/06/07 08:53:37;;;;;;;5.47;3.37;;;;;;;22.96;41.74;100794.62;1685183;83;25833;-74
2021/06/07 08:56:04;;;;;;;9.38;3.27;;;;;;;22.99;42.60;100789.62;1679346;83;25199;-73
2021/06/07 08:58:30;;;;;;;4.95;3.15;;;;;;;23.02;42.38;100793.14;1680507;83;25536;-74
2021/06/07 09:00:56;;;;;;;9.15;2.90;;;;;;;23.10;42.04;100791.96;1681953;83;25444;-74
2021/06/07 09:03:26;;;;;;;4.12;2.90;;;;;;;23.13;41.56;100782.14;1680377;83;25667;-73
2021/06/07 09:05:56;;;;;;;6.72;3.05;;;;;;;23.12;41.37;100789.07;1677975;84;25231;-74
2021/06/07 09:08:28;;;;;;;6.40;2.75;;;;;;;23.11;41.35;100792.27;1680086;83;25576;-74
2021/06/07 09:10:54;;;;;;;3.70;2.55;;;;;;;23.19;41.58;100787.89;1680552;83;26490;-74
2021/06/07 09:13:23;;;;;;;6.83;2.80;;;;;;;23.29;40.07;100801.12;1682080;83;25710;-74
2021/06/07 09:15:55;;;;;;;3.62;2.47;;;;;;;23.33;40.89;100795.61;1681313;83;25746;-74
2021/06/07 09:18:35;;;;;;;5.78;2.52;;;;;;;23.39;40.96;100787.97;1679078;83;25257;-74
2021/06/07 09:21:12;;;;;;;5.37;3.05;;;;;;;23.43;41.11;100791.23;1681289;83;25609;-74
2021/06/07 09:23:57;;;;;;;4.42;2.67;;;;;;;23.48;40.60;100794.53;1680703;83;25653;-74
2021/06/07 09:26:34;;;;;;;5.78;2.80;;;;;;;23.48;40.03;100783.33;1682485;83;25865;-74
2021/06/07 09:29:07;;;;;;;6.35;2.75;;;;;;;23.55;39.65;100784.52;1681270;83;25704;-74
2021/06/07 09:31:44;;;;;;;8.03;3.40;;;;;;;23.51;38.95;100779.37;1681663;83;25192;-74
2021/06/07 09:34:15;;;;;;;5.15;2.55;;;;;;;23.52;39.75;100777.00;1681762;83;25202;-75
2021/06/07 09:36:44;;;;;;;6.72;2.70;;;;;;;23.55;38.95;100781.86;1680894;83;25684;-73
2021/06/07 09:39:15;;;;;;;4.57;2.70;;;;;;;23.55;39.09;100770.38;1678412;83;25192;-71
2021/06/07 09:42:02;;;;;;;6.78;2.87;;;;;;;23.57;39.49;100765.59;1678261;83;25191;-71
2021/06/07 09:44:43;;;;;;;5.67;2.60;;;;;;;23.63;39.58;100767.31;1649295;84;25860;-70
2021/06/07 09:47:31;;;;;;;5.00;2.55;;;;;;;23.67;38.76;100762.56;1646802;84;25752;-71
2021/06/07 09:50:03;;;;;;;5.37;2.87;;;;;;;23.73;38.94;100760.81;1649173;84;25768;-71
2021/06/07 09:52:48;;;;;;;4.47;2.67;;;;;;;23.77;38.60;100763.30;1648277;84;25653;-71
2021/06/07 09:55:18;;;;;;;3.10;2.50;;;;;;;23.79;38.94;100753.19;1631551;86;25797;-71
2021/06/07 09:57:54;;;;;;;9.58;3.12;;;;;;;23.88;39.15;100750.39;1650274;84;25454;-71
2021/06/07 10:00:49;;;;;;;6.97;2.72;;;;;;;24.02;39.05;100749.52;1652036;84;25199;-70
2021/06/07 10:03:21;;;;;;;6.83;2.52;;;;;;;24.05;38.26;100749.56;1651320;84;25660;-72
2021/06/07 10:05:50;;;;;;;4.70;2.60;;;;;;;24.14;38.79;100750.75;1652719;84;25880;-71
2021/06/07 10:08:18;;;;;;;7.80;3.10;;;;;;;24.25;38.38;100754.38;1650631;84;25800;-72
2021/06/07 10:10:46;;;;;;;3.52;2.58;;;;;;;24.26;37.94;100745.33;1653873;84;26473;-72
2021/06/07 10:13:13;;;;;;;6.62;2.65;;;;;;;24.26;37.59;100742.13;1652042;84;25615;-71
2021/06/07 10:15:42;;;;;;;4.78;2.42;;;;;;;24.30;38.23;100741.09;1653911;84;25690;-72
2021/06/07 10:18:13;;;;;;;3.02;2.33;;;;;;;24.35;37.68;100747.30;1649474;84;25269;-72
2021/06/07 10:20:49;;;;;;;6.65;2.20;;;;;;;24.37;37.72;100741.20;1669149;83;25703;-72
2021/06/07 10:23:22;;;;;;;7.20;2.50;;;;;;;24.45;37.77;100740.00;1680959;83;25871;-72
2021/06/07 10:25:50;;;;;;;5.12;2.92;;;;;;;24.43;36.09;100731.38;1676768;83;25203;-71
2021/06/07 10:28:17;;;;;;;4.78;2.72;;;;;;;24.44;37.27;100738.36;1675099;83;25799;-72
2021/06/07 10:30:46;;;;;;;5.35;2.47;;;;;;;24.54;37.15;100731.02;1658543;84;25539;-72
2021/06/07 10:33:34;;;;;;;3.15;2.62;;;;;;;24.67;37.34;100723.16;1678617;83;25617;-72
2021/06/07 10:36:26;;;;;;;4.87;2.85;;;;;;;24.72;37.68;100735.25;1680435;83;25731;-69
2021/06/07 10:39:19;;;;;;;5.78;2.60;;;;;;;24.81;35.68;100731.86;1676542;83;25441;-71
2021/06/07 10:41:58;;;;;;;4.53;2.87;;;;;;;24.75;36.42;100726.19;1688327;83;25585;-73
2021/06/07 10:44:37;;;;;;;5.83;2.85;;;;;;;24.74;36.79;100717.87;1681309;83;25231;-74
2021/06/07 10:47:07;;;;;;;4.47;2.65;;;;;;;24.86;36.54;100711.59;1685571;83;25417;-74
2021/06/07 10:49:39;;;;;;;8.73;2.77;;;;;;;24.95;36.86;100722.12;1682789;83;25220;-74
2021/06/07 10:52:14;;;;;;;3.83;2.80;;;;;;;25.08;37.02;100720.91;1685249;83;25216;-74
2021/06/07 10:54:43;;;;;;;7.12;3.10;;;;;;;25.14;36.43;100714.55;1684044;83;25614;-74
2021/06/07 10:57:34;;;;;;;4.30;2.90;;;;;;;25.12;36.22;100720.67;1682160;83;25232;-74
2021/06/07 11:00:30;;;;;;;3.65;2.58;;;;;;;25.11;35.41;100724.42;1677947;83;25721;-72
2021/06/07 11:03:01;;;;;;;8.10;3.22;;;;;;;25.08;35.99;100724.93;1683150;83;25196;-73
2021/06/07 11:05:32;;;;;;;7.92;3.10;;;;;;;25.06;36.05;100718.48;1685341;83;25255;-74
2021/06/07 11:08:09;;;;;;;6.20;3.17;;;;;;;25.23;37.00;100718.40;1682561;83;25578;-74
2021/06/07 11:10:41;;;;;;;5.40;3.00;;;;;;;25.44;37.03;100708.15;1679348;83;25718;-72
2021/06/07 11:13:13;;;;;;;3.42;2.50;;;;;;;25.66;36.63;100713.41;1678807;83;25757;-72
2021/06/07 11:15:58;;;;;;;5.67;2.75;;;;;;;25.73;36.14;100715.05;1679603;83;25698;-72
2021/06/07 11:18:33;;;;;;;6.72;3.00;;;;;;;25.69;35.58;100713.42;1681431;83;25534;-72
2021/06/07 11:21:10;;;;;;;5.10;2.90;;;;;;;25.49;35.64;100715.42;1679843;83;25571;-71
2021/06/07 11:23:42;;;;;;;10.00;2.87;;;;;;;25.41;35.59;100718.03;1677173;83;25215;-72
2021/06/07 11:26:11;;;;;;;7.12;2.83;;;;;;;25.47;35.99;100710.84;1677052;83;25273;-72
2021/06/07 11:28:48;;;;;;;5.78;2.80;;;;;;;25.61;34.89;100704.53;1677737;83;25693;-72
2021/06/07 11:31:25;;;;;;;5.65;2.65;;;;;;;25.76;35.49;100708.66;1677061;83;25187;-72